sensor_id;sensor_type;location;lat;lon;timestamp;pressure;altitude;pressure_sealevel;temperature;humidity
60433;BME280;46286;48.098;11.590;2022-07-29T10:29:11;95454.38;;;24.25;63.62
60433;BME280;46286;48.098;11.590;2022-07-29T10:37:20;95447.56;;;24.08;64.27
60433;BME280;46286;48.098;11.590;2022-07-29T10:43:36;95448.50;;;23.96;64.63
60433;BME280;46286;48.098;11.590;2022-07-29T10:46:03;95449.34;;;24.00;66.02
60433;BME280;46286;48.098;11.590;2022-07-29T10:48:30;95452.69;;;24.17;65.38
60433;BME280;46286;48.098;11.590;2022-07-29T10:51:03;95446.22;;;24.45;65.07
60433;BME280;46286;48.098;11.590;2022-07-29T10:53:48;95445.13;;;24.23;62.75
60433;BME280;46286;48.098;11.590;2022-07-29T10:56:29;95441.06;;;24.59;62.11
60433;BME280;46286;48.098;11.590;2022-07-29T11:01:46;95447.31;;;25.85;59.19
60433;BME280;46286;48.098;11.590;2022-07-29T11:04:12;95437.75;;;26.32;56.73
60433;BME280;46286;48.098;11.590;2022-07-29T11:07:06;95439.97;;;26.23;57.26
60433;BME280;46286;48.098;11.590;2022-07-29T11:09:33;95435.00;;;26.25;56.19
60433;BME280;46286;48.098;11.590;2022-07-29T11:11:59;95441.19;;;26.81;55.72
60433;BME280;46286;48.098;11.590;2022-07-29T11:17:23;95433.13;;;27.83;51.53
60433;BME280;46286;48.098;11.590;2022-07-29T11:19:48;95436.44;;;27.34;52.22
60433;BME280;46286;48.098;11.590;2022-07-29T11:22:32;95436.91;;;27.54;50.84
60433;BME280;46286;48.098;11.590;2022-07-29T11:25:16;95433.16;;;27.91;52.89
60433;BME280;46286;48.098;11.590;2022-07-29T11:27:42;95423.94;;;28.35;48.15
60433;BME280;46286;48.098;11.590;2022-07-29T11:30:09;95420.78;;;28.98;47.15
60433;BME280;46286;48.098;11.590;2022-07-29T11:32:42;95424.63;;;29.04;46.70
60433;BME280;46286;48.098;11.590;2022-07-29T11:35:22;95415.38;;;28.98;45.47
60433;BME280;46286;48.098;11.590;2022-07-29T11:41:26;95405.22;;;29.24;40.89
60433;BME280;46286;48.098;11.590;2022-07-29T11:43:56;95401.34;;;29.28;42.43
60433;BME280;46286;48.098;11.590;2022-07-29T11:46:47;95407.63;;;28.93;42.57
60433;BME280;46286;48.098;11.590;2022-07-29T11:49:20;95406.09;;;28.92;43.05
60433;BME280;46286;48.098;11.590;2022-07-29T11:51:53;95407.72;;;28.35;44.57
60433;BME280;46286;48.098;11.590;2022-07-29T11:54:47;95401.88;;;28.47;44.06
60433;BME280;46286;48.098;11.590;2022-07-29T11:57:13;95399.19;;;28.51;44.86
60433;BME280;46286;48.098;11.590;2022-07-29T11:59:41;95399.19;;;28.33;44.40
60433;BME280;46286;48.098;11.590;2022-07-29T12:02:07;95406.16;;;28.48;45.29
60433;BME280;46286;48.098;11.590;2022-07-29T12:04:34;95405.31;;;27.79;44.21
60433;BME280;46286;48.098;11.590;2022-07-29T12:07:00;95391.41;;;27.70;43.43
60433;BME280;46286;48.098;11.590;2022-07-29T12:09:25;95392.25;;;28.46;43.75
60433;BME280;46286;48.098;11.590;2022-07-29T12:11:58;95392.22;;;28.61;42.43
60433;BME280;46286;48.098;11.590;2022-07-29T12:14:29;95380.25;;;28.11;44.71
60433;BME280;46286;48.098;11.590;2022-07-29T12:16:55;95383.34;;;28.35;44.58
60433;BME280;46286;48.098;11.590;2022-07-29T12:19:20;95373.69;;;28.34;42.45
60433;BME280;46286;48.098;11.590;2022-07-29T12:21:49;95383.31;;;27.92;42.19
60433;BME280;46286;48.098;11.590;2022-07-29T12:24:16;95394.53;;;27.83;43.39
60433;BME280;46286;48.098;11.590;2022-07-29T12:26:55;95391.44;;;27.77;43.52
60433;BME280;46286;48.098;11.590;2022-07-29T12:29:21;95386.81;;;27.96;45.32
60433;BME280;46286;48.098;11.590;2022-07-29T12:31:52;95377.91;;;27.88;41.82
60433;BME280;46286;48.098;11.590;2022-07-29T12:34:20;95381.38;;;27.74;44.11
60433;BME280;46286;48.098;11.590;2022-07-29T12:36:47;95386.78;;;27.74;44.13
60433;BME280;46286;48.098;11.590;2022-07-29T12:39:15;95380.56;;;27.48;43.44
60433;BME280;46286;48.098;11.590;2022-07-29T12:41:41;95382.88;;;27.61;44.94
60433;BME280;46286;48.098;11.590;2022-07-29T12:44:07;95370.56;;;27.81;44.07
60433;BME280;46286;48.098;11.590;2022-07-29T12:46:35;95369.06;;;28.09;45.06
60433;BME280;46286;48.098;11.590;2022-07-29T12:49:01;95362.84;;;28.41;44.10
60433;BME280;46286;48.098;11.590;2022-07-29T12:51:39;95365.94;;;28.43;44.00
60433;BME280;46286;48.098;11.590;2022-07-29T12:56:33;95370.19;;;27.76;43.73
60433;BME280;46286;48.098;11.590;2022-07-29T12:58:59;95382.91;;;27.82;45.54
60433;BME280;46286;48.098;11.590;2022-07-29T13:01:25;95379.41;;;27.64;44.55
60433;BME280;46286;48.098;11.590;2022-07-29T13:03:58;95389.03;;;27.43;46.35
60433;BME280;46286;48.098;11.590;2022-07-29T13:06:40;95386.69;;;27.38;46.36
60433;BME280;46286;48.098;11.590;2022-07-29T13:11:34;95391.06;;;26.84;48.62
60433;BME280;46286;48.098;11.590;2022-07-29T13:14:01;95387.25;;;26.92;48.55
60433;BME280;46286;48.098;11.590;2022-07-29T13:16:27;95393.97;;;26.57;49.71
60433;BME280;46286;48.098;11.590;2022-07-29T13:19:06;95381.59;;;26.49;50.80
60433;BME280;46286;48.098;11.590;2022-07-29T13:21:33;95373.16;;;26.54;50.48
60433;BME280;46286;48.098;11.590;2022-07-29T13:23:59;95383.81;;;26.36;50.02
60433;BME280;46286;48.098;11.590;2022-07-29T13:26:25;95381.94;;;26.43;51.30
60433;BME280;46286;48.098;11.590;2022-07-29T13:28:50;95375.13;;;26.08;51.63
60433;BME280;46286;48.098;11.590;2022-07-29T13:31:16;95378.28;;;25.76;50.71
60433;BME280;46286;48.098;11.590;2022-07-29T13:33:41;95382.56;;;25.77;51.29
60433;BME280;46286;48.098;11.590;2022-07-29T13:36:07;95367.03;;;25.67;50.69
60433;BME280;46286;48.098;11.590;2022-07-29T13:38:32;95381.53;;;25.52;51.79
60433;BME280;46286;48.098;11.590;2022-07-29T13:40:59;95388.72;;;25.40;53.56
60433;BME280;46286;48.098;11.590;2022-07-29T13:43:24;95389.78;;;25.32;54.12
60433;BME280;46286;48.098;11.590;2022-07-29T13:45:50;95385.53;;;25.31;58.47
60433;BME280;46286;48.098;11.590;2022-07-29T13:48:15;95379.53;;;25.15;55.72
60433;BME280;46286;48.098;11.590;2022-07-29T13:50:40;95374.81;;;25.04;55.38
60433;BME280;46286;48.098;11.590;2022-07-29T13:53:06;95375.56;;;25.01;57.21
60433;BME280;46286;48.098;11.590;2022-07-29T13:55:31;95365.19;;;25.03;56.72
60433;BME280;46286;48.098;11.590;2022-07-29T13:57:57;95369.31;;;25.28;56.98
60433;BME280;46286;48.098;11.590;2022-07-29T14:00:22;95374.66;;;25.58;57.52
60433;BME280;46286;48.098;11.590;2022-07-29T14:02:49;95370.88;;;25.66;56.62
60433;BME280;46286;48.098;11.590;2022-07-29T14:05:14;95364.06;;;25.80;55.44
60433;BME280;46286;48.098;11.590;2022-07-29T14:07:39;95357.81;;;25.68;55.57
60433;BME280;46286;48.098;11.590;2022-07-29T14:10:05;95358.69;;;25.80;54.66
60433;BME280;46286;48.098;11.590;2022-07-29T14:12:31;95354.44;;;25.79;55.33
60433;BME280;46286;48.098;11.590;2022-07-29T14:14:57;95354.84;;;25.81;56.52
60433;BME280;46286;48.098;11.590;2022-07-29T14:17:22;95345.81;;;26.03;56.04
60433;BME280;46286;48.098;11.590;2022-07-29T14:19:48;95345.81;;;26.03;54.32
60433;BME280;46286;48.098;11.590;2022-07-29T14:22:14;95349.78;;;26.17;54.13
60433;BME280;46286;48.098;11.590;2022-07-29T14:24:39;95345.94;;;26.18;54.15
60433;BME280;46286;48.098;11.590;2022-07-29T14:27:05;95346.59;;;26.07;55.11
60433;BME280;46286;48.098;11.590;2022-07-29T14:29:32;95350.25;;;26.33;53.58
60433;BME280;46286;48.098;11.590;2022-07-29T14:31:57;95351.94;;;26.00;55.33
60433;BME280;46286;48.098;11.590;2022-07-29T14:34:23;95351.84;;;25.89;54.02
60433;BME280;46286;48.098;11.590;2022-07-29T14:36:49;95354.84;;;25.81;55.56
60433;BME280;46286;48.098;11.590;2022-07-29T14:39:14;95344.88;;;25.85;53.36
60433;BME280;46286;48.098;11.590;2022-07-29T14:41:40;95352.75;;;26.04;53.89
60433;BME280;46286;48.098;11.590;2022-07-29T14:44:06;95343.31;;;25.84;52.19
60433;BME280;46286;48.098;11.590;2022-07-29T14:46:32;95348.22;;;26.16;52.88
60433;BME280;46286;48.098;11.590;2022-07-29T14:48:57;95353.03;;;25.92;52.31
60433;BME280;46286;48.098;11.590;2022-07-29T14:51:22;95359.56;;;25.50;53.55
60433;BME280;46286;48.098;11.590;2022-07-29T14:53:48;95360.84;;;25.63;54.21
60433;BME280;46286;48.098;11.590;2022-07-29T14:56:13;95360.72;;;25.49;54.22
60433;BME280;46286;48.098;11.590;2022-07-29T14:58:39;95367.47;;;25.73;52.40
60433;BME280;46286;48.098;11.590;2022-07-29T15:01:05;95367.56;;;25.42;54.30
60433;BME280;46286;48.098;11.590;2022-07-29T15:03:31;95376.13;;;25.52;53.53
60433;BME280;46286;48.098;11.590;2022-07-29T15:05:56;95374.78;;;25.72;54.50
60433;BME280;46286;48.098;11.590;2022-07-29T15:08:22;95371.78;;;25.77;54.34
60433;BME280;46286;48.098;11.590;2022-07-29T15:10:48;95376.13;;;25.52;53.75
60433;BME280;46286;48.098;11.590;2022-07-29T15:13:13;95382.25;;;25.49;54.72
60433;BME280;46286;48.098;11.590;2022-07-29T15:15:39;95374.91;;;25.46;55.04
60433;BME280;46286;48.098;11.590;2022-07-29T15:18:06;95366.03;;;25.41;55.20
60433;BME280;46286;48.098;11.590;2022-07-29T15:20:32;95373.75;;;25.47;55.38
60433;BME280;46286;48.098;11.590;2022-07-29T15:22:57;95365.97;;;25.38;53.97
60433;BME280;46286;48.098;11.590;2022-07-29T15:25:24;95368.09;;;25.21;56.90
60433;BME280;46286;48.098;11.590;2022-07-29T15:27:49;95359.56;;;25.16;55.71
60433;BME280;46286;48.098;11.590;2022-07-29T15:30:15;95360.56;;;25.34;53.93
60433;BME280;46286;48.098;11.590;2022-07-29T15:32:44;95357.09;;;25.03;56.79
60433;BME280;46286;48.098;11.590;2022-07-29T15:35:10;95361.97;;;25.24;55.40
60433;BME280;46286;48.098;11.590;2022-07-29T15:37:37;95366.56;;;25.24;55.39
60433;BME280;46286;48.098;11.590;2022-07-29T15:40:03;95368.69;;;25.07;55.76
60433;BME280;46286;48.098;11.590;2022-07-29T15:42:29;95372.91;;;24.75;56.16
60433;BME280;46286;48.098;11.590;2022-07-29T15:44:54;95367.13;;;24.72;57.04
60433;BME280;46286;48.098;11.590;2022-07-29T15:47:21;95367.59;;;24.55;57.64
60433;BME280;46286;48.098;11.590;2022-07-29T15:49:46;95376.28;;;24.45;58.32
60433;BME280;46286;48.098;11.590;2022-07-29T15:52:12;95383.97;;;24.43;58.86
60433;BME280;46286;48.098;11.590;2022-07-29T15:54:38;95391.50;;;24.33;59.34
60433;BME280;46286;48.098;11.590;2022-07-29T15:57:06;95401.41;;;24.29;60.69
60433;BME280;46286;48.098;11.590;2022-07-29T15:59:32;95402.13;;;24.26;61.59
60433;BME280;46286;48.098;11.590;2022-07-29T16:01:58;95404.97;;;24.10;62.42
60433;BME280;46286;48.098;11.590;2022-07-29T16:04:23;95403.13;;;23.91;63.08
60433;BME280;46286;48.098;11.590;2022-07-29T16:06:49;95408.97;;;23.77;62.99
60433;BME280;46286;48.098;11.590;2022-07-29T16:09:16;95400.50;;;23.75;64.00
60433;BME280;46286;48.098;11.590;2022-07-29T16:11:42;95401.09;;;23.65;63.90
60433;BME280;46286;48.098;11.590;2022-07-29T16:14:08;95392.56;;;23.59;64.36
60433;BME280;46286;48.098;11.590;2022-07-29T16:16:35;95399.31;;;23.73;64.38
60433;BME280;46286;48.098;11.590;2022-07-29T16:19:00;95398.66;;;23.56;66.38
60433;BME280;46286;48.098;11.590;2022-07-29T16:21:27;95400.19;;;23.57;66.00
60433;BME280;46286;48.098;11.590;2022-07-29T16:23:52;95397.09;;;23.55;66.34
60433;BME280;46286;48.098;11.590;2022-07-29T16:26:18;95401.66;;;23.55;66.53
60433;BME280;46286;48.098;11.590;2022-07-29T16:28:43;95403.88;;;23.49;67.31
60433;BME280;46286;48.098;11.590;2022-07-29T16:31:09;95405.28;;;23.43;67.38
60433;BME280;46286;48.098;11.590;2022-07-29T16:33:34;95405.22;;;23.39;67.70
60433;BME280;46286;48.098;11.590;2022-07-29T16:36:00;95418.16;;;23.33;68.02
60433;BME280;46286;48.098;11.590;2022-07-29T16:38:25;95421.13;;;23.28;68.48
60433;BME280;46286;48.098;11.590;2022-07-29T16:40:51;95429.75;;;23.38;68.35
60433;BME280;46286;48.098;11.590;2022-07-29T16:43:17;95432.72;;;23.32;67.71
60433;BME280;46286;48.098;11.590;2022-07-29T16:45:42;95431.00;;;23.24;68.28
60433;BME280;46286;48.098;11.590;2022-07-29T16:48:09;95433.41;;;23.29;68.72
60433;BME280;46286;48.098;11.590;2022-07-29T16:50:34;95437.16;;;23.25;68.66
60433;BME280;46286;48.098;11.590;2022-07-29T16:53:00;95443.88;;;23.15;69.01
60433;BME280;46286;48.098;11.590;2022-07-29T16:55:25;95442.13;;;23.07;68.87
60433;BME280;46286;48.098;11.590;2022-07-29T16:57:51;95451.47;;;23.13;69.58
60433;BME280;46286;48.098;11.590;2022-07-29T17:00:20;95455.84;;;23.01;69.48
60433;BME280;46286;48.098;11.590;2022-07-29T17:02:46;95456.50;;;22.98;70.72
60433;BME280;46286;48.098;11.590;2022-07-29T17:05:11;95466.78;;;22.77;72.98
60433;BME280;46286;48.098;11.590;2022-07-29T17:07:38;95474.88;;;22.45;77.84
60433;BME280;46286;48.098;11.590;2022-07-29T17:10:04;95475.44;;;22.22;80.71
60433;BME280;46286;48.098;11.590;2022-07-29T17:12:32;95471.28;;;22.09;77.41
60433;BME280;46286;48.098;11.590;2022-07-29T17:14:58;95478.25;;;21.97;78.60
60433;BME280;46286;48.098;11.590;2022-07-29T17:17:23;95484.53;;;21.89;78.80
60433;BME280;46286;48.098;11.590;2022-07-29T17:19:49;95488.19;;;21.81;79.40
60433;BME280;46286;48.098;11.590;2022-07-29T17:22:14;95494.47;;;21.73;82.32
60433;BME280;46286;48.098;11.590;2022-07-29T17:24:40;95498.31;;;21.59;82.90
60433;BME280;46286;48.098;11.590;2022-07-29T17:27:06;95501.41;;;21.49;84.81
60433;BME280;46286;48.098;11.590;2022-07-29T17:29:31;95501.91;;;21.39;86.13
60433;BME280;46286;48.098;11.590;2022-07-29T17:31:57;95509.19;;;21.26;87.11
60433;BME280;46286;48.098;11.590;2022-07-29T17:34:24;95504.63;;;21.14;86.91
60433;BME280;46286;48.098;11.590;2022-07-29T17:36:49;95525.16;;;21.10;88.26
60433;BME280;46286;48.098;11.590;2022-07-29T17:39:15;95525.16;;;21.10;86.55
60433;BME280;46286;48.098;11.590;2022-07-29T17:41:41;95524.25;;;21.06;87.10
60433;BME280;46286;48.098;11.590;2022-07-29T17:44:09;95536.53;;;21.07;87.39
60433;BME280;46286;48.098;11.590;2022-07-29T17:46:34;95527.59;;;21.03;85.47
60433;BME280;46286;48.098;11.590;2022-07-29T17:49:00;95533.09;;;20.94;84.07
60433;BME280;46286;48.098;11.590;2022-07-29T17:51:25;95537.22;;;20.79;81.55
60433;BME280;46286;48.098;11.590;2022-07-29T17:53:52;95548.34;;;20.81;81.50
60433;BME280;46286;48.098;11.590;2022-07-29T17:56:17;95544.97;;;20.59;81.51
60433;BME280;46286;48.098;11.590;2022-07-29T17:58:43;95552.47;;;20.33;81.52
60433;BME280;46286;48.098;11.590;2022-07-29T18:01:08;95559.63;;;20.29;79.87
60433;BME280;46286;48.098;11.590;2022-07-29T18:03:34;95554.91;;;20.13;79.81
60433;BME280;46286;48.098;11.590;2022-07-29T18:06:00;95557.28;;;19.94;81.41
60433;BME280;46286;48.098;11.590;2022-07-29T18:08:26;95561.69;;;19.89;82.49
60433;BME280;46286;48.098;11.590;2022-07-29T18:10:52;95554.41;;;19.99;81.88
60433;BME280;46286;48.098;11.590;2022-07-29T18:13:18;95551.69;;;19.86;81.79
60433;BME280;46286;48.098;11.590;2022-07-29T18:15:44;95555.44;;;19.85;81.97
60433;BME280;46286;48.098;11.590;2022-07-29T18:18:10;95557.56;;;19.80;82.08
60433;BME280;46286;48.098;11.590;2022-07-29T18:20:36;95557.81;;;19.66;83.40
60433;BME280;46286;48.098;11.590;2022-07-29T18:23:02;95561.13;;;19.63;84.64
60433;BME280;46286;48.098;11.590;2022-07-29T18:25:27;95551.53;;;19.62;85.23
60433;BME280;46286;48.098;11.590;2022-07-29T18:27:53;95553.88;;;19.42;86.06
60433;BME280;46286;48.098;11.590;2022-07-29T18:30:19;95554.34;;;19.44;85.22
60433;BME280;46286;48.098;11.590;2022-07-29T18:32:45;95551.91;;;19.30;86.38
60433;BME280;46286;48.098;11.590;2022-07-29T18:35:11;95557.41;;;19.34;87.24
60433;BME280;46286;48.098;11.590;2022-07-29T18:37:36;95556.88;;;19.19;88.50
60433;BME280;46286;48.098;11.590;2022-07-29T18:40:03;95549.53;;;19.08;88.39
60433;BME280;46286;48.098;11.590;2022-07-29T18:42:29;95562.81;;;18.95;89.01
60433;BME280;46286;48.098;11.590;2022-07-29T18:44:54;95561.72;;;18.87;89.90
60433;BME280;46286;48.098;11.590;2022-07-29T18:47:20;95565.09;;;18.67;92.19
60433;BME280;46286;48.098;11.590;2022-07-29T18:49:45;95576.84;;;18.66;94.75
60433;BME280;46286;48.098;11.590;2022-07-29T18:52:11;95588.63;;;18.65;95.60
60433;BME280;46286;48.098;11.590;2022-07-29T18:54:36;95570.94;;;18.51;98.63
60433;BME280;46286;48.098;11.590;2022-07-29T18:57:02;95587.69;;;18.61;100.00
60433;BME280;46286;48.098;11.590;2022-07-29T18:59:28;95589.94;;;18.41;99.15
60433;BME280;46286;48.098;11.590;2022-07-29T19:01:55;95593.22;;;18.38;100.00
60433;BME280;46286;48.098;11.590;2022-07-29T19:04:21;95595.75;;;18.26;100.00
60433;BME280;46286;48.098;11.590;2022-07-29T19:06:47;95605.16;;;18.14;100.00
60433;BME280;46286;48.098;11.590;2022-07-29T19:09:12;95612.69;;;18.12;100.00
60433;BME280;46286;48.098;11.590;2022-07-29T19:11:38;95612.09;;;17.98;100.00
60433;BME280;46286;48.098;11.590;2022-07-29T19:14:04;95610.47;;;17.79;100.00
60433;BME280;46286;48.098;11.590;2022-07-29T19:16:30;95618.00;;;17.77;100.00
60433;BME280;46286;48.098;11.590;2022-07-29T19:18:56;95628.34;;;17.70;100.00
60433;BME280;46286;48.098;11.590;2022-07-29T19:21:30;95626.13;;;17.55;100.00
60433;BME280;46286;48.098;11.590;2022-07-29T19:23:56;95635.50;;;17.43;100.00
60433;BME280;46286;48.098;11.590;2022-07-29T19:26:21;95637.69;;;17.41;100.00
60433;BME280;46286;48.098;11.590;2022-07-29T19:28:47;95630.13;;;17.26;100.00
60433;BME280;46286;48.098;11.590;2022-07-29T19:31:12;95633.53;;;17.18;100.00
60433;BME280;46286;48.098;11.590;2022-07-29T19:33:38;95637.13;;;17.13;100.00
60433;BME280;46286;48.098;11.590;2022-07-29T19:36:04;95640.38;;;17.01;100.00
60433;BME280;46286;48.098;11.590;2022-07-29T19:38:30;95637.50;;;16.89;100.00
60433;BME280;46286;48.098;11.590;2022-07-29T19:40:56;95641.84;;;16.85;100.00
60433;BME280;46286;48.098;11.590;2022-07-29T19:43:22;95644.03;;;16.83;100.00
60433;BME280;46286;48.098;11.590;2022-07-29T19:45:47;95642.44;;;16.82;100.00
60433;BME280;46286;48.098;11.590;2022-07-29T19:48:13;95640.53;;;16.73;100.00
60433;BME280;46286;48.098;11.590;2022-07-29T19:50:38;95650.81;;;16.66;100.00
60433;BME280;46286;48.098;11.590;2022-07-29T19:53:04;95644.53;;;16.62;100.00
60433;BME280;46286;48.098;11.590;2022-07-29T19:55:29;95651.41;;;16.63;100.00
60433;BME280;46286;48.098;11.590;2022-07-29T19:57:55;95637.66;;;16.61;100.00
60433;BME280;46286;48.098;11.590;2022-07-29T20:00:22;95647.31;;;16.57;100.00
60433;BME280;46286;48.098;11.590;2022-07-29T20:02:49;95639.47;;;16.52;100.00
60433;BME280;46286;48.098;11.590;2022-07-29T20:05:16;95644.78;;;16.52;100.00
60433;BME280;46286;48.098;11.590;2022-07-29T20:07:41;95648.56;;;16.51;100.00
60433;BME280;46286;48.098;11.590;2022-07-29T20:10:07;95651.94;;;16.42;100.00
60433;BME280;46286;48.098;11.590;2022-07-29T20:12:33;95644.69;;;16.34;100.00
60433;BME280;46286;48.098;11.590;2022-07-29T20:14:59;95651.56;;;16.35;100.00
60433;BME280;46286;48.098;11.590;2022-07-29T20:17:24;95654.69;;;16.37;100.00
60433;BME280;46286;48.098;11.590;2022-07-29T20:19:51;95651.38;;;16.32;100.00
60433;BME280;46286;48.098;11.590;2022-07-29T20:22:17;95659.66;;;16.30;100.00
60433;BME280;46286;48.098;11.590;2022-07-29T20:24:44;95658.69;;;16.26;100.00
60433;BME280;46286;48.098;11.590;2022-07-29T20:27:10;95648.31;;;16.16;100.00
60433;BME280;46286;48.098;11.590;2022-07-29T20:29:36;95659.88;;;16.20;100.00
60433;BME280;46286;48.098;11.590;2022-07-29T20:32:03;95646.91;;;16.18;100.00
60433;BME280;46286;48.098;11.590;2022-07-29T20:34:29;95651.09;;;16.10;100.00
60433;BME280;46286;48.098;11.590;2022-07-29T20:36:55;95653.84;;;16.05;100.00
60433;BME280;46286;48.098;11.590;2022-07-29T20:39:20;95650.59;;;16.08;100.00
60433;BME280;46286;48.098;11.590;2022-07-29T20:41:47;95653.06;;;16.05;100.00
60433;BME280;46286;48.098;11.590;2022-07-29T20:44:12;95655.44;;;16.06;100.00
60433;BME280;46286;48.098;11.590;2022-07-29T20:46:39;95646.00;;;16.00;100.00
60433;BME280;46286;48.098;11.590;2022-07-29T20:49:05;95650.13;;;16.06;100.00
60433;BME280;46286;48.098;11.590;2022-07-29T20:51:31;95654.94;;;16.04;100.00
60433;BME280;46286;48.098;11.590;2022-07-29T20:53:56;95646.00;;;16.00;100.00
60433;BME280;46286;48.098;11.590;2022-07-29T20:56:22;95645.03;;;15.96;100.00
60433;BME280;46286;48.098;11.590;2022-07-29T20:58:48;95657.22;;;15.97;100.00
60433;BME280;46286;48.098;11.590;2022-07-29T21:01:13;95651.91;;;15.97;100.00
60433;BME280;46286;48.098;11.590;2022-07-29T21:03:39;95649.38;;;15.92;100.00
60433;BME280;46286;48.098;11.590;2022-07-29T21:06:04;95658.59;;;15.94;100.00
60433;BME280;46286;48.098;11.590;2022-07-29T21:08:30;95652.34;;;15.90;100.00
60433;BME280;46286;48.098;11.590;2022-07-29T21:10:56;95661.16;;;15.86;100.00
60433;BME280;46286;48.098;11.590;2022-07-29T21:13:21;95653.91;;;15.77;100.00
60433;BME280;46286;48.098;11.590;2022-07-29T21:15:47;95662.38;;;15.80;100.00
60433;BME280;46286;48.098;11.590;2022-07-29T21:18:17;95655.50;;;15.79;100.00
60433;BME280;46286;48.098;11.590;2022-07-29T21:20:57;95662.75;;;15.87;100.00
60433;BME280;46286;48.098;11.590;2022-07-29T21:23:24;95661.97;;;15.86;100.00
60433;BME280;46286;48.098;11.590;2022-07-29T21:25:50;95660.22;;;15.82;100.00
60433;BME280;46286;48.098;11.590;2022-07-29T21:28:16;95656.00;;;15.81;100.00
60433;BME280;46286;48.098;11.590;2022-07-29T21:31:05;95666.69;;;15.75;100.00
60433;BME280;46286;48.098;11.590;2022-07-29T21:33:31;95656.19;;;15.70;100.00
60433;BME280;46286;48.098;11.590;2022-07-29T21:35:59;95665.69;;;15.71;100.00
60433;BME280;46286;48.098;11.590;2022-07-29T21:38:24;95656.97;;;15.71;100.00
60433;BME280;46286;48.098;11.590;2022-07-29T21:40:51;95655.28;;;15.75;100.00
60433;BME280;46286;48.098;11.590;2022-07-29T21:43:17;95656.06;;;15.75;100.00
60433;BME280;46286;48.098;11.590;2022-07-29T21:45:44;95659.00;;;15.74;100.00
60433;BME280;46286;48.098;11.590;2022-07-29T21:48:15;95655.09;;;15.71;100.00
60433;BME280;46286;48.098;11.590;2022-07-29T21:50:41;95651.97;;;15.69;100.00
60433;BME280;46286;48.098;11.590;2022-07-29T21:53:07;95652.66;;;15.61;100.00
60433;BME280;46286;48.098;11.590;2022-07-29T21:55:32;95655.00;;;15.63;100.00
60433;BME280;46286;48.098;11.590;2022-07-29T21:57:58;95660.13;;;15.59;100.00
60433;BME280;46286;48.098;11.590;2022-07-29T22:00:23;95652.94;;;15.59;100.00
60433;BME280;46286;48.098;11.590;2022-07-29T22:02:53;95652.78;;;15.56;100.00
60433;BME280;46286;48.098;11.590;2022-07-29T22:05:19;95655.91;;;15.58;100.00
60433;BME280;46286;48.098;11.590;2022-07-29T22:07:45;95647.09;;;15.49;100.00
60433;BME280;46286;48.098;11.590;2022-07-29T22:10:10;95649.16;;;15.52;100.00
60433;BME280;46286;48.098;11.590;2022-07-29T22:12:36;95649.84;;;15.44;100.00
60433;BME280;46286;48.098;11.590;2022-07-29T22:15:02;95651.00;;;15.51;100.00
60433;BME280;46286;48.098;11.590;2022-07-29T22:17:28;95651.59;;;15.48;100.00
60433;BME280;46286;48.098;11.590;2022-07-29T22:19:54;95650.81;;;15.48;100.00
60433;BME280;46286;48.098;11.590;2022-07-29T22:22:20;95652.56;;;15.52;100.00
60433;BME280;46286;48.098;11.590;2022-07-29T22:24:45;95648.75;;;15.45;100.00
60433;BME280;46286;48.098;11.590;2022-07-29T22:27:11;95645.22;;;15.35;100.00
60433;BME280;46286;48.098;11.590;2022-07-29T22:29:37;95635.41;;;15.36;100.00
60433;BME280;46286;48.098;11.590;2022-07-29T22:32:02;95636.88;;;15.28;100.00
60433;BME280;46286;48.098;11.590;2022-07-29T22:34:28;95636.88;;;15.28;100.00
60433;BME280;46286;48.098;11.590;2022-07-29T22:36:55;95645.72;;;15.37;100.00
60433;BME280;46286;48.098;11.590;2022-07-29T22:39:21;95650.22;;;15.37;100.00
60433;BME280;46286;48.098;11.590;2022-07-29T22:41:46;95651.13;;;15.32;100.00
60433;BME280;46286;48.098;11.590;2022-07-29T22:44:12;95651.25;;;15.27;100.00
60433;BME280;46286;48.098;11.590;2022-07-29T22:46:37;95653.59;;;15.29;100.00
60433;BME280;46286;48.098;11.590;2022-07-29T22:49:03;95645.13;;;15.27;100.00
60433;BME280;46286;48.098;11.590;2022-07-29T22:51:29;95644.16;;;15.36;100.00
60433;BME280;46286;48.098;11.590;2022-07-29T22:53:55;95652.56;;;15.38;100.00
60433;BME280;46286;48.098;11.590;2022-07-29T22:56:20;95638.63;;;15.33;100.00
60433;BME280;46286;48.098;11.590;2022-07-29T22:58:46;95634.13;;;15.33;100.00
60433;BME280;46286;48.098;11.590;2022-07-29T23:01:13;95637.69;;;15.29;100.00
60433;BME280;46286;48.098;11.590;2022-07-29T23:03:38;95640.22;;;15.20;100.00
60433;BME280;46286;48.098;11.590;2022-07-29T23:06:04;95627.47;;;15.22;100.00
60433;BME280;46286;48.098;11.590;2022-07-29T23:08:30;95632.25;;;15.20;100.00
60433;BME280;46286;48.098;11.590;2022-07-29T23:10:56;95626.09;;;15.24;100.00
60433;BME280;46286;48.098;11.590;2022-07-29T23:13:21;95623.63;;;15.28;100.00
60433;BME280;46286;48.098;11.590;2022-07-29T23:15:47;95628.53;;;15.21;100.00
60433;BME280;46286;48.098;11.590;2022-07-29T23:18:12;95617.03;;;15.25;100.00
60433;BME280;46286;48.098;11.590;2022-07-29T23:20:38;95622.94;;;15.22;100.00
60433;BME280;46286;48.098;11.590;2022-07-29T23:23:03;95619.22;;;15.23;100.00
60433;BME280;46286;48.098;11.590;2022-07-29T23:25:29;95615.41;;;15.16;100.00
60433;BME280;46286;48.098;11.590;2022-07-29T23:27:55;95621.09;;;15.23;100.00
60433;BME280;46286;48.098;11.590;2022-07-29T23:30:20;95610.56;;;15.18;100.00
60433;BME280;46286;48.098;11.590;2022-07-29T23:32:46;95600.56;;;15.15;100.00
60433;BME280;46286;48.098;11.590;2022-07-29T23:35:11;95606.66;;;15.29;100.00